Time;durP1;ratioP1;P1;durP2;ratioP2;P2;SDS_P1;SDS_P2;PMS_P1;PMS_P2;Temp;Humidity;BMP_temperature;BMP_pressure;BME280_temperature;BME280_humidity;BME280_pressure;Samples;Min_cycle;Max_cycle;Signal;HPM_P1;HPM_P2
2023/01/25 00:01:26;;;;;;;66.80;26.48;;;;;;;;;;4903748;29;20048;-78
2023/01/25 00:03:53;;;;;;;64.90;27.35;;;;;;;;;;4919162;29;20122;-78
2023/01/25 00:06:19;;;;;;;67.60;26.85;;;;;;;;;;4906291;29;20400;-78
2023/01/25 00:08:49;;;;;;;69.68;27.67;;;;;;;;;;4920625;29;20043;-78
2023/01/25 00:11:16;;;;;;;66.18;27.27;;;;;;;;;;4919611;29;20146;-78
2023/01/25 00:13:43;;;;;;;70.22;27.73;;;;;;;;;;4903463;29;20035;-77
2023/01/25 00:16:09;;;;;;;73.53;26.83;;;;;;;;;;4903417;29;20044;-78
2023/01/25 00:18:35;;;;;;;64.07;25.83;;;;;;;;;;4918896;29;20036;-78
2023/01/25 00:21:21;;;;;;;62.95;27.05;;;1.70;99.90;;;;;;4918972;29;20044;-78
2023/01/25 00:23:48;;;;;;;59.75;24.90;;;;;;;;;;4918519;29;20396;-78
2023/01/25 00:26:14;;;;;;;67.88;25.50;;;;;;;;;;4903267;29;20055;-78
2023/01/25 00:28:40;;;;;;;68.18;26.25;;;;;;;;;;4903528;29;20086;-78
2023/01/25 00:31:07;;;;;;;62.30;25.40;;;;;;;;;;4902534;29;20151;-78
2023/01/25 00:33:34;;;;;;;66.85;25.45;;;;;;;;;;4934761;29;20066;-78
2023/01/25 00:36:00;;;;;;;62.78;25.73;;;;;;;;;;4892041;29;20048;-78
2023/01/25 00:38:28;;;;;;;63.65;25.38;;;;;;;;;;4900206;29;20044;-78
2023/01/25 00:40:54;;;;;;;66.25;24.90;;;;;;;;;;4899999;29;20552;-78
2023/01/25 00:43:20;;;;;;;60.20;25.60;;;;;;;;;;4884897;29;20458;-78
2023/01/25 00:45:46;;;;;;;67.35;26.48;;;;;;;;;;4904566;29;20043;-78
2023/01/25 00:48:12;;;;;;;63.30;25.65;;;;;;;;;;4919292;29;20107;-78
2023/01/25 00:50:39;;;;;;;68.50;27.05;;;;;;;;;;4918718;29;20043;-78
2023/01/25 00:53:05;;;;;;;67.85;26.67;;;;;;;;;;4919210;29;20051;-78
2023/01/25 00:55:31;;;;;;;64.65;26.88;;;;;;;;;;4902510;29;20094;-78
2023/01/25 00:57:57;;;;;;;65.93;25.92;;;;;;;;;;4918943;29;20040;-78
2023/01/25 01:00:23;;;;;;;67.72;27.17;;;;;;;;;;4924195;29;20051;-78
2023/01/25 01:02:49;;;;;;;66.25;26.42;;;;;;;;;;4925203;29;20036;-78
2023/01/25 01:05:15;;;;;;;74.72;27.38;;;;;;;;;;4924836;29;20404;-78
2023/01/25 01:07:42;;;;;;;68.10;26.85;;;;;;;;;;4924257;29;20067;-78
2023/01/25 01:10:08;;;;;;;66.07;27.42;;;;;;;;;;4925110;29;20511;-78
2023/01/25 01:12:34;;;;;;;66.22;26.67;;;;;;;;;;4894360;29;20040;-78
2023/01/25 01:15:01;;;;;;;66.03;26.60;;;;;;;;;;4908989;29;20051;-78
2023/01/25 01:17:27;;;;;;;71.55;27.05;;;;;;;;;;4925114;29;20070;-79
2023/01/25 01:19:53;;;;;;;64.93;27.55;;;;;;;;;;4908974;29;20075;-78
2023/01/25 01:22:19;;;;;;;74.63;28.50;;;;;;;;;;4909105;29;20072;-78
2023/01/25 01:24:48;;;;;;;70.32;28.80;;;1.70;99.90;;;;;;4914773;29;20381;-78
2023/01/25 01:27:14;;;;;;;66.82;26.65;;;;;;;;;;4921738;29;20067;-78
2023/01/25 01:29:40;;;;;;;65.35;26.75;;;;;;;;;;4906000;29;20051;-78
2023/01/25 01:32:07;;;;;;;71.45;27.30;;;;;;;;;;4905755;29;20155;-78
2023/01/25 01:34:34;;;;;;;71.28;29.23;;;;;;;;;;4910045;29;20119;-78
2023/01/25 01:37:00;;;;;;;72.75;28.77;;;;;;;;;;4924635;29;20043;-78
2023/01/25 01:39:26;;;;;;;79.88;29.73;;;;;;;;;;4909008;29;20177;-78
2023/01/25 01:41:52;;;;;;;74.07;30.27;;;;;;;;;;4908985;29;20054;-78
2023/01/25 01:44:23;;;;;;;75.97;29.48;;;1.80;99.90;;;;;;4923528;29;20035;-78
2023/01/25 01:46:55;;;;;;;73.97;28.27;;;1.80;99.90;;;;;;4908544;29;20481;-72
2023/01/25 01:49:21;;;;;;;;;;;;;;;;;;4909323;29;20543;-72
2023/01/25 01:51:47;;;;;;;80.47;29.77;;;;;;;;;;4924503;29;20009;-72
2023/01/25 01:54:24;;;;;;;77.28;29.00;;;;;;;;;;4924169;29;20050;-72
2023/01/25 01:56:53;;;;;;;79.55;28.63;;;;;;;;;;4924425;29;20102;-72
2023/01/25 01:59:22;;;;;;;79.78;28.63;;;1.70;99.90;;;;;;4924960;29;20066;-72
2023/01/25 02:01:48;;;;;;;83.57;30.80;;;;;;;;;;4892981;29;20039;-72
2023/01/25 02:04:17;;;;;;;85.07;31.08;;;1.50;99.90;;;;;;4924420;29;20039;-72
2023/01/25 02:07:10;;;;;;;76.47;28.75;;;1.80;99.90;;;;;;4921911;29;20138;-72
2023/01/25 02:09:36;;;;;;;86.97;31.85;;;;;;;;;;4922713;29;20124;-72
2023/01/25 02:12:04;;;;;;;81.97;32.35;;;1.70;99.90;;;;;;4898218;29;20080;-72
2023/01/25 02:14:31;;;;;;;87.43;32.28;;;;;;;;;;4894427;29;20050;-72
2023/01/25 02:16:57;;;;;;;85.68;31.63;;;;;;;;;;4894880;29;20090;-72
2023/01/25 02:19:29;;;;;;;93.63;33.15;;;;;;;;;;4887009;29;20040;-72
2023/01/25 02:21:57;;;;;;;81.65;31.60;;;;;;;;;;4921798;29;20421;-73
2023/01/25 02:24:29;;;;;;;82.30;32.65;;;1.60;99.90;;;;;;4899420;29;20036;-72
2023/01/25 02:26:56;;;;;;;84.00;31.35;;;;;;;;;;4903843;29;20044;-72
2023/01/25 02:29:23;;;;;;;92.57;33.42;;;;;;;;;;4921581;29;20470;-72
2023/01/25 02:31:51;;;;;;;96.80;34.63;;;;;;;;;;4920859;29;20060;-72
2023/01/25 02:34:17;;;;;;;102.30;35.72;;;1.70;99.90;;;;;;4921071;29;20070;-72
2023/01/25 02:36:44;;;;;;;106.65;36.60;;;;;;;;;;4921170;29;20400;-72
2023/01/25 02:39:14;;;;;;;92.75;35.08;;;;;;;;;;4920829;29;20046;-73
2023/01/25 02:41:43;;;;;;;104.75;36.15;;;1.80;99.90;;;;;;4921474;29;20067;-72
2023/01/25 02:44:19;;;;;;;106.72;35.95;;;1.50;99.90;;;;;;4905077;29;20043;-72
2023/01/25 02:46:46;;;;;;;119.03;37.70;;;;;;;;;;4920888;29;20062;-72
2023/01/25 02:49:13;;;;;;;112.80;37.13;;;;;;;;;;4919142;29;20130;-73
2023/01/25 02:51:40;;;;;;;107.20;36.35;;;;;;;;;;4886396;29;20051;-72
2023/01/25 02:54:08;;;;;;;104.32;37.90;;;1.40;99.90;;;;;;4902152;29;20036;-72
2023/01/25 02:56:35;;;;;;;114.72;37.10;;;;;;;;;;4886263;29;20131;-72
2023/01/25 02:59:04;;;;;;;118.72;40.17;;;;;;;;;;4918786;29;20059;-72
2023/01/25 03:01:34;;;;;;;117.10;39.22;;;;;;;;;;4902030;29;20077;-72
2023/01/25 03:04:00;;;;;;;105.10;38.05;;;;;;;;;;4902091;29;20215;-72
2023/01/25 03:06:26;;;;;;;109.55;37.15;;;;;;;;;;4918376;29;20181;-72
2023/01/25 03:08:52;;;;;;;119.38;38.38;;;;;;;;;;4920868;29;20058;-72
2023/01/25 03:11:18;;;;;;;116.22;38.65;;;;;;;;;;4905002;29;20050;-72
2023/01/25 03:13:44;;;;;;;125.97;40.72;;;;;;;;;;4917325;29;20051;-73
2023/01/25 03:16:12;;;;;;;118.45;38.70;;;1.30;99.90;;;;;;4901481;29;20055;-72
2023/01/25 03:18:39;;;;;;;114.75;36.65;;;;;;;;;;4927745;29;20063;-72
2023/01/25 03:21:07;;;;;;;110.95;36.28;;;;;;;;;;4917364;29;20118;-72
2023/01/25 03:23:33;;;;;;;112.53;37.63;;;;;;;;;;4894981;29;20040;-72
2023/01/25 03:26:20;;;;;;;107.00;34.55;;;;;;;;;;4912215;29;20059;-72
2023/01/25 03:28:46;;;;;;;113.53;37.85;;;;;;;;;;4919888;29;20046;-72
2023/01/25 03:31:14;;;;;;;116.35;36.65;;;;;;;;;;4919728;29;20142;-72
2023/01/25 03:33:40;;;;;;;108.88;35.78;;;;;;;;;;4903497;29;20056;-72
2023/01/25 03:36:07;;;;;;;114.35;35.65;;;;;;;;;;4902223;29;20040;-72
2023/01/25 03:38:33;;;;;;;122.45;37.78;;;;;;;;;;4901481;29;20075;-72
2023/01/25 03:40:59;;;;;;;119.25;38.53;;;;;;;;;;4900837;29;20039;-72
2023/01/25 03:43:25;;;;;;;108.78;37.13;;;;;;;;;;4885578;29;20044;-72
2023/01/25 03:45:59;;;;;;;117.53;36.30;;;1.50;99.90;;;;;;4900969;29;20134;-72
2023/01/25 03:48:27;;;;;;;120.32;38.83;;;1.20;99.90;;;;;;4901065;29;20055;-72
2023/01/25 03:50:57;;;;;;;108.72;37.45;;;;;;;;;;4907808;29;20040;-72
2023/01/25 03:53:31;;;;;;;111.20;38.00;;;;;;;;;;4897148;29;20083;-72
2023/01/25 03:56:07;;;;;;;116.93;37.55;;;;;;;;;;4919652;29;20047;-72
2023/01/25 03:58:34;;;;;;;112.70;36.22;;;1.50;99.90;;;;;;4919787;29;20040;-72
2023/01/25 04:01:01;;;;;;;118.38;36.15;;;;;;;;;;4919152;29;20551;-72
2023/01/25 04:03:27;;;;;;;122.72;38.10;;;;;;;;;;4919341;29;20039;-72
2023/01/25 04:05:54;;;;;;;112.95;35.83;;;;;;;;;;4913933;29;20090;-72
2023/01/25 04:08:21;;;;;;;122.45;36.85;;;;;;;;;;4900806;29;20048;-72
2023/01/25 04:10:54;;;;;;;116.95;36.78;;;;;;;;;;4885068;29;20135;-72
2023/01/25 04:13:21;;;;;;;126.00;38.80;;;1.10;99.90;;;;;;4900774;29;20370;-72
2023/01/25 04:15:47;;;;;;;127.20;39.45;;;;;;;;;;4900301;29;20374;-72
2023/01/25 04:18:13;;;;;;;116.90;38.60;;;;;;;;;;4907975;29;20051;-72
2023/01/25 04:20:40;;;;;;;121.47;37.92;;;;;;;;;;4884980;29;20038;-72
2023/01/25 04:23:06;;;;;;;129.63;40.55;;;;;;;;;;4901447;29;20040;-72
2023/01/25 04:25:33;;;;;;;128.02;40.22;;;;;;;;;;4884804;29;20054;-72
2023/01/25 04:27:59;;;;;;;128.30;39.47;;;;;;;;;;4888648;29;20051;-72
2023/01/25 04:30:25;;;;;;;118.53;38.72;;;;;;;;;;4919026;29;20158;-72
2023/01/25 04:32:51;;;;;;;135.15;43.03;;;;;;;;;;4918823;29;20047;-72
2023/01/25 04:35:19;;;;;;;127.75;39.05;;;;;;;;;;4917992;29;20051;-72
2023/01/25 04:37:53;;;;;;;126.97;41.28;;;1.00;99.90;;;;;;4918484;29;20484;-73
2023/01/25 04:40:19;;;;;;;134.32;40.67;;;;;;;;;;4919001;29;20437;-72
2023/01/25 04:42:45;;;;;;;134.90;41.03;;;;;;;;;;4900315;29;20079;-72
2023/01/25 04:45:11;;;;;;;122.60;38.42;;;;;;;;;;4913233;29;20047;-72
2023/01/25 04:47:38;;;;;;;129.90;39.80;;;;;;;;;;4917685;29;20091;-72
2023/01/25 04:50:04;;;;;;;125.07;37.25;;;;;;;;;;4900483;29;20111;-72
2023/01/25 04:52:30;;;;;;;114.05;34.30;;;;;;;;;;4899805;29;20048;-73
2023/01/25 04:54:56;;;;;;;109.13;34.92;;;;;;;;;;4899926;29;20048;-72
2023/01/25 04:57:22;;;;;;;106.03;35.42;;;;;;;;;;4899905;29;20048;-72
2023/01/25 04:59:48;;;;;;;124.22;36.90;;;;;;;;;;4913141;29;20043;-72
2023/01/25 05:02:14;;;;;;;106.50;34.25;;;;;;;;;;4918731;29;20130;-72
2023/01/25 05:04:40;;;;;;;108.45;35.55;;;;;;;;;;4901702;29;20126;-72
2023/01/25 05:07:06;;;;;;;99.30;32.65;;;;;;;;;;4903347;29;20131;-72
2023/01/25 05:09:32;;;;;;;111.65;33.80;;;;;;;;;;4890828;29;20040;-72
2023/01/25 05:11:58;;;;;;;106.72;35.50;;;;;;;;;;4899898;29;20043;-72
2023/01/25 05:14:24;;;;;;;117.95;36.78;;;;;;;;;;4900624;29;20382;-72
2023/01/25 05:16:50;;;;;;;108.53;36.60;;;;;;;;;;4918462;29;20044;-72
2023/01/25 05:19:17;;;;;;;118.20;37.03;;;;;;;;;;4918474;29;20040;-73
2023/01/25 05:21:58;;;;;;;114.80;36.45;;;;;;;;;;4918737;29;20048;-73
2023/01/25 05:24:24;;;;;;;117.25;36.13;;;;;;;;;;4895431;29;20036;-72
2023/01/25 05:26:59;;;;;;;123.60;36.53;;;;;;;;;;4884066;29;20484;-72
2023/01/25 05:29:26;;;;;;;113.18;37.08;;;1.00;99.90;;;;;;4899786;29;20399;-72
2023/01/25 05:31:52;;;;;;;110.72;36.88;;;;;;;;;;4915341;29;20052;-72
2023/01/25 05:34:19;;;;;;;123.32;38.80;;;;;;;;;;4906970;29;20073;-73
2023/01/25 05:36:45;;;;;;;124.10;39.38;;;;;;;;;;4902160;29;20048;-73
2023/01/25 05:39:11;;;;;;;117.65;39.28;;;;;;;;;;4904214;29;20040;-73
2023/01/25 05:41:37;;;;;;;117.65;37.00;;;;;;;;;;4899695;29;20044;-73
2023/01/25 05:44:03;;;;;;;119.00;38.88;;;;;;;;;;4899493;29;20480;-73
2023/01/25 05:46:29;;;;;;;120.03;39.40;;;;;;;;;;4885843;29;20401;-73
2023/01/25 05:48:55;;;;;;;116.30;38.63;;;;;;;;;;4906615;29;20067;-73
2023/01/25 05:51:21;;;;;;;120.72;37.95;;;;;;;;;;4922181;29;20130;-73
2023/01/25 05:53:47;;;;;;;122.47;39.08;;;;;;;;;;4921773;29;20044;-73
2023/01/25 05:56:14;;;;;;;113.88;36.38;;;;;;;;;;4921783;29;20055;-73
2023/01/25 05:58:40;;;;;;;118.45;37.35;;;;;;;;;;4921607;29;20083;-73
2023/01/25 06:01:07;;;;;;;114.38;38.00;;;1.20;99.90;;;;;;4921511;29;20040;-72
2023/01/25 06:03:33;;;;;;;112.32;38.10;;;;;;;;;;4906038;29;20055;-73
2023/01/25 06:06:01;;;;;;;111.68;37.03;;;1.00;99.90;;;;;;4921318;29;20094;-72
2023/01/25 06:08:31;;;;;;;116.43;38.83;;;;;;;;;;4904607;29;20043;-73
2023/01/25 06:10:57;;;;;;;112.95;39.22;;;1.20;99.90;;;;;;4903014;29;20134;-72
2023/01/25 06:13:26;;;;;;;111.22;36.90;;;;;;;;;;4902703;29;20433;-73
2023/01/25 06:15:53;;;;;;;107.22;38.25;;;;;;;;;;4887249;29;20116;-72
2023/01/25 06:18:19;;;;;;;113.60;38.85;;;;;;;;;;4902620;29;20044;-73
2023/01/25 06:20:45;;;;;;;112.63;37.45;;;;;;;;;;4914723;29;20123;-78
2023/01/25 06:23:11;;;;;;;114.05;37.60;;;;;;;;;;4921417;29;20040;-78
2023/01/25 06:25:37;;;;;;;111.63;37.53;;;;;;;;;;4905104;29;20102;-78
2023/01/25 06:28:03;;;;;;;113.78;39.70;;;;;;;;;;4896620;29;20488;-76
2023/01/25 06:30:29;;;;;;;120.20;38.22;;;;;;;;;;4902222;29;20103;-78
2023/01/25 06:32:57;;;;;;;103.70;36.75;;;1.00;99.90;;;;;;4907521;29;20123;-78
2023/01/25 06:35:23;;;;;;;113.88;37.38;;;;;;;;;;4913411;29;20056;-78
2023/01/25 06:37:49;;;;;;;113.53;37.55;;;;;;;;;;4914840;29;20388;-78
2023/01/25 06:40:16;;;;;;;113.35;37.97;;;;;;;;;;4920504;29;20050;-78
2023/01/25 06:42:42;;;;;;;113.03;37.13;;;;;;;;;;4902454;29;20040;-78
2023/01/25 06:45:09;;;;;;;109.80;39.55;;;;;;;;;;4908458;29;20043;-78
2023/01/25 06:47:35;;;;;;;113.38;37.05;;;;;;;;;;4920932;29;20039;-78
2023/01/25 06:50:01;;;;;;;115.80;39.47;;;;;;;;;;4897847;29;20190;-78
2023/01/25 06:52:27;;;;;;;122.60;40.13;;;;;;;;;;4893324;29;20449;-78
2023/01/25 06:54:53;;;;;;;120.60;39.22;;;;;;;;;;4919946;29;20050;-78
2023/01/25 06:57:19;;;;;;;115.72;37.03;;;;;;;;;;4903551;29;20138;-78
2023/01/25 06:59:45;;;;;;;119.85;38.55;;;;;;;;;;4910407;29;20036;-78
2023/01/25 07:02:15;;;;;;;120.10;38.28;;;;;;;;;;4896733;29;20039;-78
2023/01/25 07:04:41;;;;;;;117.72;38.53;;;;;;;;;;4919944;29;20472;-78
2023/01/25 07:07:08;;;;;;;124.28;40.10;;;;;;;;;;4935953;29;20100;-78
2023/01/25 07:09:35;;;;;;;120.82;40.45;;;;;;;;;;4910509;29;20047;-78
2023/01/25 07:12:03;;;;;;;134.25;42.00;;;;;;;;;;4919825;29;20438;-78
2023/01/25 07:14:29;;;;;;;115.50;37.13;;;;;;;;;;4916046;29;20050;-78
2023/01/25 07:16:56;;;;;;;110.70;35.15;;;;;;;;;;4903307;29;20139;-78
2023/01/25 07:19:22;;;;;;;115.55;34.63;;;;;;;;;;4920030;29;20123;-78
2023/01/25 07:21:48;;;;;;;106.97;33.00;;;;;;;;;;4919783;29;20046;-78
2023/01/25 07:24:16;;;;;;;125.32;37.22;;;;;;;;;;4920224;29;20491;-79
2023/01/25 07:26:42;;;;;;;119.22;39.08;;;;;;;;;;4936127;29;20048;-78
2023/01/25 07:29:11;;;;;;;119.55;37.20;;;;;;;;;;4936071;29;20047;-78
2023/01/25 07:31:37;;;;;;;114.18;36.05;;;;;;;;;;4919940;29;20062;-78
2023/01/25 07:34:03;;;;;;;119.85;37.88;;;;;;;;;;4936432;29;20471;-79
2023/01/25 07:36:30;;;;;;;121.35;35.05;;;;;;;;;;4920429;29;20400;-78
2023/01/25 07:38:57;;;;;;;122.22;37.58;;;;;;;;;;4920677;29;20480;-78
2023/01/25 07:41:24;;;;;;;118.03;37.35;;;1.20;99.90;;;;;;4935768;29;20175;-78
2023/01/25 07:43:50;;;;;;;126.78;36.05;;;;;;;;;;4919595;29;20097;-78
2023/01/25 07:46:17;;;;;;;124.82;38.85;;;;;;;;;;4935089;29;20043;-78
2023/01/25 07:48:47;;;;;;;120.40;37.83;;;;;;;;;;4919424;29;20043;-79
2023/01/25 07:51:28;;;;;;;114.75;35.33;;;;;;;;;;4917481;29;20043;-78
2023/01/25 07:53:59;;;;;;;124.18;37.15;;;;;;;;;;4905991;29;20163;-78
2023/01/25 07:56:27;;;;;;;125.38;35.78;;;;;;;;;;4909379;29;20174;-79
2023/01/25 07:58:56;;;;;;;123.95;36.22;;;;;;;;;;4919701;29;20392;-78
2023/01/25 08:01:24;;;;;;;115.20;35.53;;;;;;;;;;4919585;29;20412;-79
2023/01/25 08:03:50;;;;;;;131.80;35.92;;;;;;;;;;4903744;29;20043;-78
2023/01/25 08:06:21;;;;;;;118.28;36.40;;;1.30;99.90;;;;;;4904056;29;20425;-78
2023/01/25 08:08:49;;;;;;;124.07;36.30;;;;;;;;;;4918690;29;20055;-78
2023/01/25 08:11:20;;;;;;;115.70;34.15;;;;;;;;;;4903651;29;20075;-78
2023/01/25 08:13:48;;;;;;;103.90;32.42;;;;;;;;;;4902148;29;20472;-78
2023/01/25 08:16:15;;;;;;;108.68;33.95;;;;;;;;;;4884806;29;20397;-78
2023/01/25 08:18:41;;;;;;;119.82;35.80;;;;;;;;;;4891986;29;20500;-78
2023/01/25 08:21:07;;;;;;;119.28;35.75;;;;;;;;;;4909289;29;20055;-78
2023/01/25 08:23:33;;;;;;;113.15;33.08;;;;;;;;;;4913176;29;20052;-78
2023/01/25 08:26:03;;;;;;;114.60;32.90;;;;;;;;;;4918294;29;20558;-78
2023/01/25 08:28:30;;;;;;;116.88;32.83;;;;;;;;;;4934689;29;20069;-78
2023/01/25 08:31:04;;;;;;;112.57;34.70;;;;;;;;;;4918418;29;20450;-78
2023/01/25 08:33:30;;;;;;;113.40;34.97;;;;;;;;;;4934878;29;20079;-79
2023/01/25 08:35:56;;;;;;;116.22;34.42;;;;;;;;;;4901696;29;20135;-75
2023/01/25 08:38:22;;;;;;;114.55;33.50;;;;;;;;;;4909055;29;20127;-78
2023/01/25 08:40:49;;;;;;;115.40;32.97;;;;;;;;;;4918215;29;20044;-78
2023/01/25 08:43:15;;;;;;;115.15;31.50;;;;;;;;;;4889007;29;20044;-78
2023/01/25 08:45:41;;;;;;;101.03;31.38;;;;;;;;;;4918665;29;20044;-78
2023/01/25 08:48:07;;;;;;;107.63;31.55;;;;;;;;;;4903647;29;20048;-78
2023/01/25 08:50:33;;;;;;;116.35;33.85;;;;;;;;;;4919081;29;20055;-78
2023/01/25 08:52:59;;;;;;;112.15;32.42;;;;;;;;;;4918984;29;20048;-78
2023/01/25 08:55:25;;;;;;;106.60;30.60;;;;;;;;;;4934656;29;20044;-78
2023/01/25 08:57:51;;;;;;;112.25;32.00;;;;;;;;;;4919106;29;20047;-78
2023/01/25 09:00:17;;;;;;;117.32;32.78;;;;;;;;;;4934767;29;20086;-78
2023/01/25 09:02:43;;;;;;;105.38;29.60;;;;;;;;;;4934946;29;20042;-78
2023/01/25 09:05:09;;;;;;;103.38;29.20;;;;;;;;;;4918786;29;20039;-78
2023/01/25 09:07:37;;;;;;;112.75;30.15;;;;;;;;;;4934564;29;20047;-78
2023/01/25 09:10:07;;;;;;;104.22;27.98;;;;;;;;;;4919119;29;20473;-78
2023/01/25 09:12:39;;;;;;;118.10;29.92;;;;;;;;;;4919005;29;20094;-79
2023/01/25 09:15:06;;;;;;;109.82;30.13;;;;;;;;;;4934639;29;20043;-78
2023/01/25 09:17:32;;;;;;;100.65;29.00;;;;;;;;;;4934692;29;20059;-78
2023/01/25 09:19:58;;;;;;;93.30;27.88;;;;;;;;;;4919512;29;20503;-75
2023/01/25 09:22:24;;;;;;;115.60;30.08;;;;;;;;;;4922464;29;20075;-78
2023/01/25 09:24:52;;;;;;;113.07;31.88;;;;;;;;;;4922664;29;20044;-78
2023/01/25 09:27:18;;;;;;;118.32;31.88;;;;;;;;;;4906971;29;20048;-79
2023/01/25 09:29:45;;;;;;;131.52;33.03;;;;;;;;;;4906626;29;20044;-78
2023/01/25 09:32:11;;;;;;;118.97;30.92;;;;;;;;;;4921961;29;20055;-78
2023/01/25 09:34:37;;;;;;;129.55;32.53;;;;;;;;;;4890949;29;20051;-78
2023/01/25 09:37:03;;;;;;;136.30;35.50;;;;;;;;;;4923132;29;20054;-79
2023/01/25 09:39:29;;;;;;;123.97;30.60;;;;;;;;;;4922176;29;20048;-79
2023/01/25 09:42:09;;;;;;;127.90;30.60;;;1.60;99.90;;;;;;4906485;29;20128;-78
2023/01/25 09:44:35;;;;;;;119.85;29.75;;;;;;;;;;4922025;29;20040;-79
2023/01/25 09:47:04;;;;;;;133.15;33.70;;;;;;;;;;4922099;29;20043;-78
2023/01/25 09:49:45;;;;;;;124.78;32.53;;;;;;;;;;4922101;29;20055;-79
2023/01/25 09:52:17;;;;;;;138.25;32.65;;;;;;;;;;4921883;29;20054;-78
2023/01/25 09:54:45;;;;;;;128.43;31.38;;;;;;;;;;4921978;29;20103;-78
2023/01/25 09:57:16;;;;;;;135.63;31.67;;;;;;;;;;4921852;29;20044;-78
2023/01/25 09:59:44;;;;;;;147.80;33.33;;;1.60;99.90;;;;;;4921770;29;20040;-78
2023/01/25 10:02:13;;;;;;;148.48;33.05;;;;;;;;;;4921913;29;20046;-79
2023/01/25 10:04:43;;;;;;;153.20;34.75;;;1.70;99.90;;;;;;4921817;29;20071;-78
2023/01/25 10:07:22;;;;;;;147.88;33.25;;;1.80;99.90;;;;;;4921906;29;20048;-79
2023/01/25 10:10:09;;;;;;;166.05;35.65;;;;;;;;;;4906045;29;20106;-78
2023/01/25 10:12:36;;;;;;;151.20;35.67;;;;;;;;;;4921482;29;20483;-79
2023/01/25 10:15:06;;;;;;;160.60;33.42;;;;;;;;;;4920011;29;20066;-79
2023/01/25 10:17:40;;;;;;;155.43;35.13;;;;;;;;;;4937430;29;20122;-79
2023/01/25 10:20:15;;;;;;;168.32;34.85;;;;;;;;;;4937223;29;20535;-79
2023/01/25 10:22:55;;;;;;;158.52;34.65;;;;;;;;;;4937280;29;20047;-79
2023/01/25 10:25:57;;;;;;;168.82;34.45;;;;;;;;;;4937499;29;20032;-79
2023/01/25 10:28:23;;;;;;;157.38;35.13;;;;;;;;;;4846065;29;20522;-79
2023/01/25 10:30:54;;;;;;;166.10;36.17;;;;;;;;;;4906203;29;20087;-79
2023/01/25 10:33:21;;;;;;;163.00;36.33;;;;;;;;;;4936753;29;20047;-79
2023/01/25 10:35:49;;;;;;;166.88;35.88;;;;;;;;;;4921376;29;20185;-79
2023/01/25 10:38:27;;;;;;;174.05;35.10;;;;;;;;;;4921150;29;20169;-79
2023/01/25 10:41:00;;;;;;;171.45;34.30;;;;;;;;;;4921054;29;20063;-79
2023/01/25 10:43:27;;;;;;;157.73;36.25;;;;;;;;;;4921310;29;20101;-79
2023/01/25 10:45:53;;;;;;;178.60;34.00;;;;;;;;;;4917789;29;20047;-79
2023/01/25 10:48:19;;;;;;;170.38;34.75;;;;;;;;;;4902042;29;20055;-79
2023/01/25 10:50:46;;;;;;;185.43;38.20;;;;;;;;;;4896337;29;20190;-79
2023/01/25 10:53:26;;;;;;;188.18;38.42;;;;;;;;;;4907140;29;20055;-79
2023/01/25 10:56:01;;;;;;;157.95;33.75;;;;;;;;;;4901962;29;20060;-79
2023/01/25 10:58:31;;;;;;;167.60;37.72;;;;;;;;;;4902180;29;20051;-79
2023/01/25 11:00:58;;;;;;;182.68;38.35;;;;;;;;;;4906568;29;20046;-79
2023/01/25 11:03:33;;;;;;;190.18;40.20;;;1.90;99.90;;;;;;4904808;29;20047;-79
2023/01/25 11:06:00;;;;;;;207.32;40.28;;;;;;;;;;4901655;29;20058;-78
2023/01/25 11:08:29;;;;;;;181.52;38.88;;;;;;;;;;4901704;29;20040;-79
2023/01/25 11:10:55;;;;;;;200.60;39.72;;;;;;;;;;4918751;29;20043;-78
2023/01/25 11:13:26;;;;;;;213.35;42.03;;;1.70;99.90;;;;;;4919992;29;20113;-80
2023/01/25 11:16:03;;;;;;;189.77;39.15;;;;;;;;;;4921436;29;20047;-79
2023/01/25 11:18:36;;;;;;;207.98;40.42;;;1.70;99.90;;;;;;4916930;29;20098;-79
2023/01/25 11:21:17;;;;;;;216.68;42.28;;;2.00;99.90;;;;;;4915793;29;20051;-79
2023/01/25 11:23:43;;;;;;;204.48;40.88;;;;;;;;;;4918103;29;20044;-79
2023/01/25 11:26:17;;;;;;;208.20;38.92;;;2.20;99.90;;;;;;4917829;29;20040;-78
2023/01/25 11:28:44;;;;;;;204.32;43.03;;;;;;;;;;4916404;29;20119;-79
2023/01/25 11:31:12;;;;;;;222.18;46.03;;;2.00;99.90;;;;;;4900655;29;20143;-79
2023/01/25 11:33:38;;;;;;;174.20;40.38;;;;;;;;;;4916563;29;20112;-79
2023/01/25 11:36:11;;;;;;;202.50;44.00;;;;;;;;;;4929390;29;20040;-79
2023/01/25 11:38:42;;;;;;;200.95;41.63;;;2.00;99.90;;;;;;4915870;29;20043;-78
2023/01/25 11:41:17;;;;;;;189.18;39.65;;;;;;;;;;4918782;29;20040;-79
2023/01/25 11:43:59;;;;;;;202.77;43.10;;;;;;;;;;4902970;29;20061;-79
2023/01/25 11:46:25;;;;;;;212.95;40.90;;;;;;;;;;4933580;29;20054;-79
2023/01/25 11:48:54;;;;;;;215.18;43.97;;;;;;;;;;4917282;29;20075;-79
2023/01/25 11:51:20;;;;;;;207.10;42.47;;;;;;;;;;4919185;29;20046;-79
2023/01/25 11:54:03;;;;;;;196.30;42.08;;;;;;;;;;4917851;29;20041;-79
2023/01/25 11:56:41;;;;;;;185.32;43.08;;;;;;;;;;4900274;29;20052;-79
2023/01/25 11:59:20;;;;;;;198.43;41.35;;;;;;;;;;4918618;29;20050;-79
2023/01/25 12:02:07;;;;;;;198.40;42.97;;;;;;;;;;4919671;29;20464;-79
2023/01/25 12:04:51;;;;;;;208.05;41.17;;;;;;;;;;4916045;29;20051;-79
2023/01/25 12:07:30;;;;;;;195.85;41.92;;;;;;;;;;4905517;29;20088;-79
2023/01/25 12:10:09;;;;;;;196.82;40.20;;;;;;;;;;4912792;29;20083;-79
2023/01/25 12:12:35;;;;;;;184.73;39.22;;;;;;;;;;4904355;29;20051;-79
2023/01/25 12:15:13;;;;;;;192.68;40.75;;;;;;;;;;4898006;29;20102;-78
2023/01/25 12:17:58;;;;;;;198.10;42.08;;;;;;;;;;4916264;29;20466;-76
2023/01/25 12:20:36;;;;;;;199.68;41.80;;;;;;;;;;4914408;29;20428;-78
2023/01/25 12:23:29;;;;;;;220.43;43.83;;;;;;;;;;4902867;29;20043;-78
2023/01/25 12:26:29;;;;;;;194.93;40.45;;;2.30;99.90;;;;;;4892557;29;20062;-78
2023/01/25 12:29:02;;;;;;;195.48;41.63;;;;;;;;;;4907667;29;20052;-78
2023/01/25 12:31:33;;;;;;;196.02;42.50;;;;;;;;;;4918558;29;20118;-78
2023/01/25 12:34:00;;;;;;;192.50;40.88;;;;;;;;;;4934720;29;20052;-79
2023/01/25 12:36:30;;;;;;;187.38;41.42;;;;;;;;;;4900634;29;20036;-78
2023/01/25 12:38:56;;;;;;;192.18;42.33;;;;;;;;;;4902151;29;20039;-79
2023/01/25 12:41:27;;;;;;;202.85;42.08;;;;;;;;;;4900011;29;20039;-78
2023/01/25 12:44:15;;;;;;;193.33;42.23;;;2.30;99.90;;;;;;4915746;29;20043;-79
2023/01/25 12:47:03;;;;;;;171.68;40.25;;;2.50;99.90;;;;;;4892491;29;20047;-79
2023/01/25 12:49:51;;;;;;;175.70;41.35;;;2.40;99.90;;;;;;4908327;29;20035;-79
2023/01/25 12:52:20;;;;;;;173.90;40.65;;;;;;;;;;4913298;29;20043;-78
2023/01/25 12:54:47;;;;;;;177.27;40.15;;;;;;;;;;4912890;29;20047;-79
2023/01/25 12:57:29;;;;;;;171.43;40.65;;;;;;;;;;4916148;29;20485;-78
2023/01/25 12:59:59;;;;;;;163.13;40.38;;;;;;;;;;4892819;29;20507;-78
2023/01/25 13:02:29;;;;;;;164.73;40.97;;;;;;;;;;4895342;29;20064;-77
2023/01/25 13:05:14;;;;;;;172.15;39.90;;;;;;;;;;4906964;29;20048;-78
2023/01/25 13:07:43;;;;;;;178.07;43.95;;;;;;;;;;4913641;29;20047;-78
2023/01/25 13:10:17;;;;;;;160.07;40.00;;;2.60;99.90;;;;;;4924906;29;20052;-79
2023/01/25 13:12:54;;;;;;;182.02;40.63;;;;;;;;;;4934509;29;20167;-78
2023/01/25 13:15:39;;;;;;;169.85;39.65;;;;;;;;;;4915090;29;20180;-78
2023/01/25 13:18:25;;;;;;;164.15;40.47;;;;;;;;;;4908336;29;20043;-78
2023/01/25 13:20:53;;;;;;;164.88;40.88;;;;;;;;;;4903803;29;20044;-78
2023/01/25 13:23:46;;;;;;;153.35;38.40;;;2.80;99.90;;;;;;4906026;29;20512;-78
2023/01/25 13:26:22;;;;;;;173.38;41.75;;;;;;;;;;4916404;29;20042;-78
2023/01/25 13:28:52;;;;;;;172.25;41.78;;;2.70;99.90;;;;;;4909740;29;20049;-78
2023/01/25 13:31:37;;;;;;;176.95;42.88;;;;;;;;;;4891991;29;20044;-79
2023/01/25 13:34:04;;;;;;;174.90;40.92;;;;;;;;;;4916797;29;20051;-78
2023/01/25 13:36:40;;;;;;;157.68;38.88;;;;;;;;;;4887062;29;20051;-78
2023/01/25 13:39:25;;;;;;;177.88;41.40;;;;;;;;;;4893660;29;20040;-78
2023/01/25 13:41:57;;;;;;;169.82;41.47;;;;;;;;;;4900465;29;20400;-78
2023/01/25 13:44:27;;;;;;;182.55;43.53;;;2.80;99.90;;;;;;4886182;29;20123;-78
2023/01/25 13:47:00;;;;;;;177.50;42.15;;;;;;;;;;4918124;29;20131;-79
2023/01/25 13:49:30;;;;;;;184.73;42.58;;;;;;;;;;4916711;29;20052;-78
2023/01/25 13:51:58;;;;;;;172.77;41.05;;;;;;;;;;4901955;29;20079;-78
2023/01/25 13:54:25;;;;;;;158.50;41.42;;;;;;;;;;4909682;29;20062;-78
2023/01/25 13:57:02;;;;;;;165.10;40.67;;;;;;;;;;4917645;29;20075;-78
2023/01/25 13:59:28;;;;;;;169.23;40.70;;;;;;;;;;4886507;29;20041;-78
2023/01/25 14:01:56;;;;;;;180.43;42.38;;;;;;;;;;4902652;29;20046;-78
2023/01/25 14:04:22;;;;;;;168.18;40.10;;;;;;;;;;4901783;29;20091;-78
2023/01/25 14:06:48;;;;;;;173.25;42.60;;;;;;;;;;4909969;29;20461;-78